sensor_id;sensor_type;location;lat;lon;timestamp;P1;durP1;ratioP1;P2;durP2;ratioP2
66927;SDS011;59882;45.624;11.698;2024-01-27T00:01:13;128.77;;;73.80;;
66927;SDS011;59882;45.624;11.698;2024-01-27T00:03:38;119.68;;;72.40;;
66927;SDS011;59882;45.624;11.698;2024-01-27T00:06:04;107.40;;;68.87;;
66927;SDS011;59882;45.624;11.698;2024-01-27T00:08:30;125.57;;;71.47;;
66927;SDS011;59882;45.624;11.698;2024-01-27T00:10:55;105.40;;;71.97;;
66927;SDS011;59882;45.624;11.698;2024-01-27T00:13:21;117.17;;;72.03;;
66927;SDS011;59882;45.624;11.698;2024-01-27T00:15:46;118.78;;;74.70;;
66927;SDS011;59882;45.624;11.698;2024-01-27T00:18:12;132.70;;;67.43;;
66927;SDS011;59882;45.624;11.698;2024-01-27T00:20:38;127.72;;;64.80;;
66927;SDS011;59882;45.624;11.698;2024-01-27T00:23:03;117.90;;;70.73;;
66927;SDS011;59882;45.624;11.698;2024-01-27T00:25:29;130.40;;;69.95;;
66927;SDS011;59882;45.624;11.698;2024-01-27T00:27:55;113.03;;;71.23;;
66927;SDS011;59882;45.624;11.698;2024-01-27T00:30:20;117.17;;;72.77;;
66927;SDS011;59882;45.624;11.698;2024-01-27T00:32:46;157.97;;;76.63;;
66927;SDS011;59882;45.624;11.698;2024-01-27T00:35:11;98.53;;;63.03;;
66927;SDS011;59882;45.624;11.698;2024-01-27T00:37:39;107.88;;;70.15;;
66927;SDS011;59882;45.624;11.698;2024-01-27T00:40:09;114.53;;;71.55;;
66927;SDS011;59882;45.624;11.698;2024-01-27T00:42:35;110.43;;;74.53;;
66927;SDS011;59882;45.624;11.698;2024-01-27T00:45:03;115.63;;;79.03;;
66927;SDS011;59882;45.624;11.698;2024-01-27T00:47:30;126.55;;;82.35;;
66927;SDS011;59882;45.624;11.698;2024-01-27T00:49:55;140.73;;;79.57;;
66927;SDS011;59882;45.624;11.698;2024-01-27T00:52:21;117.27;;;77.97;;
66927;SDS011;59882;45.624;11.698;2024-01-27T00:54:47;159.77;;;78.80;;
66927;SDS011;59882;45.624;11.698;2024-01-27T00:57:13;131.05;;;68.30;;
66927;SDS011;59882;45.624;11.698;2024-01-27T00:59:38;121.97;;;73.47;;
66927;SDS011;59882;45.624;11.698;2024-01-27T01:02:05;108.35;;;71.40;;
66927;SDS011;59882;45.624;11.698;2024-01-27T01:04:30;156.87;;;69.73;;
66927;SDS011;59882;45.624;11.698;2024-01-27T01:06:56;122.47;;;69.22;;
66927;SDS011;59882;45.624;11.698;2024-01-27T01:09:21;162.80;;;66.00;;
66927;SDS011;59882;45.624;11.698;2024-01-27T01:11:47;127.47;;;67.47;;
66927;SDS011;59882;45.624;11.698;2024-01-27T01:14:13;105.47;;;65.10;;
66927;SDS011;59882;45.624;11.698;2024-01-27T01:16:39;118.57;;;66.30;;
66927;SDS011;59882;45.624;11.698;2024-01-27T01:19:05;108.22;;;64.57;;
66927;SDS011;59882;45.624;11.698;2024-01-27T01:21:31;89.37;;;59.33;;
66927;SDS011;59882;45.624;11.698;2024-01-27T01:23:57;126.32;;;66.35;;
66927;SDS011;59882;45.624;11.698;2024-01-27T01:26:22;118.07;;;68.00;;
66927;SDS011;59882;45.624;11.698;2024-01-27T01:28:49;109.20;;;66.72;;
66927;SDS011;59882;45.624;11.698;2024-01-27T01:31:15;95.65;;;66.75;;
66927;SDS011;59882;45.624;11.698;2024-01-27T01:33:41;115.87;;;71.33;;
66927;SDS011;59882;45.624;11.698;2024-01-27T01:36:07;101.78;;;69.97;;
66927;SDS011;59882;45.624;11.698;2024-01-27T01:38:33;102.18;;;69.43;;
66927;SDS011;59882;45.624;11.698;2024-01-27T01:40:59;122.17;;;72.73;;
66927;SDS011;59882;45.624;11.698;2024-01-27T01:43:25;113.15;;;69.68;;
66927;SDS011;59882;45.624;11.698;2024-01-27T01:45:50;118.30;;;72.07;;
66927;SDS011;59882;45.624;11.698;2024-01-27T01:48:18;111.72;;;69.90;;
66927;SDS011;59882;45.624;11.698;2024-01-27T01:50:45;95.05;;;66.43;;
66927;SDS011;59882;45.624;11.698;2024-01-27T01:53:11;142.82;;;71.82;;
66927;SDS011;59882;45.624;11.698;2024-01-27T01:55:38;106.53;;;71.90;;
66927;SDS011;59882;45.624;11.698;2024-01-27T01:58:04;121.10;;;68.07;;
66927;SDS011;59882;45.624;11.698;2024-01-27T02:00:31;109.15;;;70.55;;
66927;SDS011;59882;45.624;11.698;2024-01-27T02:02:57;207.98;;;78.97;;
66927;SDS011;59882;45.624;11.698;2024-01-27T02:05:23;124.40;;;73.95;;
66927;SDS011;59882;45.624;11.698;2024-01-27T02:07:49;134.57;;;79.57;;
66927;SDS011;59882;45.624;11.698;2024-01-27T02:10:15;165.45;;;84.72;;
66927;SDS011;59882;45.624;11.698;2024-01-27T02:12:42;269.67;;;81.50;;
66927;SDS011;59882;45.624;11.698;2024-01-27T02:15:11;191.10;;;83.95;;
66927;SDS011;59882;45.624;11.698;2024-01-27T02:17:40;210.50;;;81.93;;
66927;SDS011;59882;45.624;11.698;2024-01-27T02:20:06;139.97;;;81.87;;
66927;SDS011;59882;45.624;11.698;2024-01-27T02:22:33;191.52;;;87.03;;
66927;SDS011;59882;45.624;11.698;2024-01-27T02:25:02;190.43;;;87.00;;
66927;SDS011;59882;45.624;11.698;2024-01-27T02:27:28;184.65;;;88.63;;
66927;SDS011;59882;45.624;11.698;2024-01-27T02:29:54;159.07;;;84.97;;
66927;SDS011;59882;45.624;11.698;2024-01-27T02:32:19;329.25;;;98.20;;
66927;SDS011;59882;45.624;11.698;2024-01-27T02:34:45;299.93;;;100.43;;
66927;SDS011;59882;45.624;11.698;2024-01-27T02:37:11;345.60;;;106.30;;
66927;SDS011;59882;45.624;11.698;2024-01-27T02:39:37;263.83;;;107.00;;
66927;SDS011;59882;45.624;11.698;2024-01-27T02:42:03;268.92;;;107.40;;
66927;SDS011;59882;45.624;11.698;2024-01-27T02:44:29;212.75;;;99.30;;
66927;SDS011;59882;45.624;11.698;2024-01-27T02:46:54;195.77;;;97.43;;
66927;SDS011;59882;45.624;11.698;2024-01-27T02:49:20;190.60;;;98.43;;
66927;SDS011;59882;45.624;11.698;2024-01-27T02:51:45;287.75;;;101.55;;
66927;SDS011;59882;45.624;11.698;2024-01-27T02:54:12;139.88;;;79.00;;
66927;SDS011;59882;45.624;11.698;2024-01-27T02:56:38;157.33;;;80.73;;
66927;SDS011;59882;45.624;11.698;2024-01-27T02:59:04;115.50;;;72.30;;
66927;SDS011;59882;45.624;11.698;2024-01-27T03:01:29;125.82;;;74.40;;
66927;SDS011;59882;45.624;11.698;2024-01-27T03:03:55;117.77;;;71.17;;
66927;SDS011;59882;45.624;11.698;2024-01-27T03:06:20;115.43;;;72.07;;
66927;SDS011;59882;45.624;11.698;2024-01-27T03:08:46;106.27;;;70.50;;
66927;SDS011;59882;45.624;11.698;2024-01-27T03:11:12;114.68;;;69.88;;
66927;SDS011;59882;45.624;11.698;2024-01-27T03:13:37;113.67;;;71.50;;
66927;SDS011;59882;45.624;11.698;2024-01-27T03:16:09;115.75;;;70.90;;
66927;SDS011;59882;45.624;11.698;2024-01-27T03:18:35;117.03;;;71.27;;
66927;SDS011;59882;45.624;11.698;2024-01-27T03:21:02;139.47;;;76.27;;
66927;SDS011;59882;45.624;11.698;2024-01-27T03:23:28;200.98;;;77.95;;
66927;SDS011;59882;45.624;11.698;2024-01-27T03:25:53;133.87;;;74.47;;
66927;SDS011;59882;45.624;11.698;2024-01-27T03:28:19;130.50;;;72.37;;
66927;SDS011;59882;45.624;11.698;2024-01-27T03:30:45;162.07;;;74.35;;
66927;SDS011;59882;45.624;11.698;2024-01-27T03:33:11;124.88;;;69.72;;
66927;SDS011;59882;45.624;11.698;2024-01-27T03:35:37;98.53;;;65.37;;
66927;SDS011;59882;45.624;11.698;2024-01-27T03:38:05;93.53;;;63.72;;
66927;SDS011;59882;45.624;11.698;2024-01-27T03:40:30;95.72;;;62.15;;
66927;SDS011;59882;45.624;11.698;2024-01-27T03:42:56;99.82;;;63.97;;
66927;SDS011;59882;45.624;11.698;2024-01-27T03:45:22;84.07;;;59.70;;
66927;SDS011;59882;45.624;11.698;2024-01-27T03:47:47;91.10;;;61.07;;
66927;SDS011;59882;45.624;11.698;2024-01-27T03:50:13;83.13;;;59.03;;
66927;SDS011;59882;45.624;11.698;2024-01-27T03:52:39;75.43;;;55.10;;
66927;SDS011;59882;45.624;11.698;2024-01-27T03:55:04;77.90;;;54.72;;
66927;SDS011;59882;45.624;11.698;2024-01-27T03:57:30;74.63;;;54.83;;
66927;SDS011;59882;45.624;11.698;2024-01-27T03:59:56;68.63;;;51.30;;
66927;SDS011;59882;45.624;11.698;2024-01-27T04:02:22;72.53;;;51.95;;
66927;SDS011;59882;45.624;11.698;2024-01-27T04:04:48;71.93;;;51.83;;
66927;SDS011;59882;45.624;11.698;2024-01-27T04:07:13;68.65;;;51.88;;
66927;SDS011;59882;45.624;11.698;2024-01-27T04:09:39;76.47;;;52.57;;
66927;SDS011;59882;45.624;11.698;2024-01-27T04:12:05;73.65;;;53.00;;
66927;SDS011;59882;45.624;11.698;2024-01-27T04:14:30;69.07;;;51.60;;
66927;SDS011;59882;45.624;11.698;2024-01-27T04:16:56;66.97;;;49.72;;
66927;SDS011;59882;45.624;11.698;2024-01-27T04:19:22;69.00;;;51.47;;
66927;SDS011;59882;45.624;11.698;2024-01-27T04:21:47;71.97;;;51.00;;
66927;SDS011;59882;45.624;11.698;2024-01-27T04:24:13;69.50;;;51.33;;
66927;SDS011;59882;45.624;11.698;2024-01-27T04:26:38;73.23;;;50.73;;
66927;SDS011;59882;45.624;11.698;2024-01-27T04:29:04;67.70;;;49.58;;
66927;SDS011;59882;45.624;11.698;2024-01-27T04:31:30;69.67;;;52.03;;
66927;SDS011;59882;45.624;11.698;2024-01-27T04:33:58;73.75;;;51.80;;
66927;SDS011;59882;45.624;11.698;2024-01-27T04:36:27;74.63;;;53.80;;
66927;SDS011;59882;45.624;11.698;2024-01-27T04:38:56;70.18;;;51.85;;
66927;SDS011;59882;45.624;11.698;2024-01-27T04:41:21;69.25;;;50.85;;
66927;SDS011;59882;45.624;11.698;2024-01-27T04:43:47;65.50;;;48.30;;
66927;SDS011;59882;45.624;11.698;2024-01-27T04:46:13;70.60;;;51.50;;
66927;SDS011;59882;45.624;11.698;2024-01-27T04:48:38;68.50;;;49.75;;
66927;SDS011;59882;45.624;11.698;2024-01-27T04:51:04;66.67;;;48.60;;
66927;SDS011;59882;45.624;11.698;2024-01-27T04:53:29;65.03;;;48.13;;
66927;SDS011;59882;45.624;11.698;2024-01-27T04:55:55;71.70;;;49.70;;
66927;SDS011;59882;45.624;11.698;2024-01-27T04:58:21;68.10;;;47.05;;
66927;SDS011;59882;45.624;11.698;2024-01-27T05:00:46;69.77;;;49.77;;
66927;SDS011;59882;45.624;11.698;2024-01-27T05:03:12;61.23;;;47.03;;
66927;SDS011;59882;45.624;11.698;2024-01-27T05:05:42;63.78;;;47.17;;
66927;SDS011;59882;45.624;11.698;2024-01-27T05:08:08;56.97;;;42.85;;
66927;SDS011;59882;45.624;11.698;2024-01-27T05:10:34;60.25;;;43.63;;
66927;SDS011;59882;45.624;11.698;2024-01-27T05:13:00;58.30;;;42.70;;
66927;SDS011;59882;45.624;11.698;2024-01-27T05:15:26;62.75;;;45.25;;
66927;SDS011;59882;45.624;11.698;2024-01-27T05:17:51;61.47;;;46.10;;
66927;SDS011;59882;45.624;11.698;2024-01-27T05:20:17;62.03;;;46.10;;
66927;SDS011;59882;45.624;11.698;2024-01-27T05:22:44;60.30;;;45.85;;
66927;SDS011;59882;45.624;11.698;2024-01-27T05:25:10;64.60;;;46.73;;
66927;SDS011;59882;45.624;11.698;2024-01-27T05:27:39;63.58;;;46.30;;
66927;SDS011;59882;45.624;11.698;2024-01-27T05:30:05;67.65;;;46.50;;
66927;SDS011;59882;45.624;11.698;2024-01-27T05:32:31;64.78;;;46.15;;
66927;SDS011;59882;45.624;11.698;2024-01-27T05:34:57;63.30;;;45.27;;
66927;SDS011;59882;45.624;11.698;2024-01-27T05:37:23;63.72;;;44.95;;
66927;SDS011;59882;45.624;11.698;2024-01-27T05:39:48;66.30;;;45.33;;
66927;SDS011;59882;45.624;11.698;2024-01-27T05:42:14;63.03;;;44.63;;
66927;SDS011;59882;45.624;11.698;2024-01-27T05:44:39;53.72;;;39.08;;
66927;SDS011;59882;45.624;11.698;2024-01-27T05:47:05;62.73;;;40.87;;
66927;SDS011;59882;45.624;11.698;2024-01-27T05:49:31;55.83;;;38.30;;
66927;SDS011;59882;45.624;11.698;2024-01-27T05:51:57;56.17;;;39.00;;
66927;SDS011;59882;45.624;11.698;2024-01-27T05:54:23;55.40;;;38.60;;
66927;SDS011;59882;45.624;11.698;2024-01-27T05:56:49;51.92;;;35.22;;
66927;SDS011;59882;45.624;11.698;2024-01-27T05:59:15;54.80;;;37.23;;
66927;SDS011;59882;45.624;11.698;2024-01-27T06:01:40;53.60;;;39.05;;
66927;SDS011;59882;45.624;11.698;2024-01-27T06:04:08;58.65;;;39.00;;
66927;SDS011;59882;45.624;11.698;2024-01-27T06:06:34;64.60;;;37.50;;
66927;SDS011;59882;45.624;11.698;2024-01-27T06:09:02;61.90;;;40.63;;
66927;SDS011;59882;45.624;11.698;2024-01-27T06:11:28;85.93;;;38.30;;
66927;SDS011;59882;45.624;11.698;2024-01-27T06:13:55;60.20;;;41.63;;
66927;SDS011;59882;45.624;11.698;2024-01-27T06:16:20;66.40;;;43.13;;
66927;SDS011;59882;45.624;11.698;2024-01-27T06:18:46;63.53;;;39.33;;
66927;SDS011;59882;45.624;11.698;2024-01-27T06:21:12;63.15;;;39.80;;
66927;SDS011;59882;45.624;11.698;2024-01-27T06:23:38;63.85;;;40.88;;
66927;SDS011;59882;45.624;11.698;2024-01-27T06:26:05;66.73;;;42.03;;
66927;SDS011;59882;45.624;11.698;2024-01-27T06:28:34;66.97;;;41.95;;
66927;SDS011;59882;45.624;11.698;2024-01-27T06:31:00;61.03;;;41.00;;
66927;SDS011;59882;45.624;11.698;2024-01-27T06:33:26;70.07;;;40.15;;
66927;SDS011;59882;45.624;11.698;2024-01-27T06:35:52;65.35;;;39.70;;
66927;SDS011;59882;45.624;11.698;2024-01-27T06:38:17;61.20;;;40.67;;
66927;SDS011;59882;45.624;11.698;2024-01-27T06:40:43;73.63;;;43.67;;
66927;SDS011;59882;45.624;11.698;2024-01-27T06:43:10;63.63;;;41.47;;
66927;SDS011;59882;45.624;11.698;2024-01-27T06:45:39;66.95;;;42.38;;
66927;SDS011;59882;45.624;11.698;2024-01-27T06:48:05;65.68;;;41.40;;
66927;SDS011;59882;45.624;11.698;2024-01-27T06:50:32;71.67;;;45.47;;
66927;SDS011;59882;45.624;11.698;2024-01-27T06:52:58;70.68;;;41.47;;
66927;SDS011;59882;45.624;11.698;2024-01-27T06:55:24;62.47;;;39.72;;
66927;SDS011;59882;45.624;11.698;2024-01-27T06:57:50;66.77;;;40.97;;
66927;SDS011;59882;45.624;11.698;2024-01-27T07:00:16;64.82;;;42.17;;
66927;SDS011;59882;45.624;11.698;2024-01-27T07:02:42;69.57;;;44.13;;
66927;SDS011;59882;45.624;11.698;2024-01-27T07:05:08;71.40;;;45.50;;
66927;SDS011;59882;45.624;11.698;2024-01-27T07:07:34;91.07;;;52.45;;
66927;SDS011;59882;45.624;11.698;2024-01-27T07:10:00;76.90;;;47.15;;
66927;SDS011;59882;45.624;11.698;2024-01-27T07:12:27;73.43;;;45.40;;
66927;SDS011;59882;45.624;11.698;2024-01-27T07:14:52;66.37;;;43.47;;
66927;SDS011;59882;45.624;11.698;2024-01-27T07:17:20;69.70;;;43.97;;
66927;SDS011;59882;45.624;11.698;2024-01-27T07:19:45;80.32;;;45.22;;
66927;SDS011;59882;45.624;11.698;2024-01-27T07:22:11;56.70;;;36.40;;
66927;SDS011;59882;45.624;11.698;2024-01-27T07:24:37;49.67;;;35.20;;
66927;SDS011;59882;45.624;11.698;2024-01-27T07:27:03;53.30;;;33.77;;
66927;SDS011;59882;45.624;11.698;2024-01-27T07:29:31;47.00;;;31.13;;
66927;SDS011;59882;45.624;11.698;2024-01-27T07:31:57;46.40;;;32.57;;
66927;SDS011;59882;45.624;11.698;2024-01-27T07:34:22;52.50;;;34.13;;
66927;SDS011;59882;45.624;11.698;2024-01-27T07:36:48;53.13;;;35.33;;
66927;SDS011;59882;45.624;11.698;2024-01-27T07:39:14;44.95;;;31.77;;
66927;SDS011;59882;45.624;11.698;2024-01-27T07:41:40;44.13;;;29.70;;
66927;SDS011;59882;45.624;11.698;2024-01-27T07:46:35;43.92;;;31.77;;
66927;SDS011;59882;45.624;11.698;2024-01-27T07:49:05;47.72;;;30.27;;
66927;SDS011;59882;45.624;11.698;2024-01-27T07:51:31;48.80;;;30.35;;
66927;SDS011;59882;45.624;11.698;2024-01-27T07:53:58;47.03;;;30.77;;
66927;SDS011;59882;45.624;11.698;2024-01-27T07:56:24;40.58;;;28.35;;
66927;SDS011;59882;45.624;11.698;2024-01-27T07:58:50;41.88;;;28.60;;
66927;SDS011;59882;45.624;11.698;2024-01-27T08:01:16;39.40;;;28.73;;
66927;SDS011;59882;45.624;11.698;2024-01-27T08:03:42;45.65;;;31.08;;
66927;SDS011;59882;45.624;11.698;2024-01-27T08:06:14;40.58;;;28.48;;
66927;SDS011;59882;45.624;11.698;2024-01-27T08:08:43;43.27;;;27.60;;
66927;SDS011;59882;45.624;11.698;2024-01-27T08:11:09;43.33;;;29.48;;
66927;SDS011;59882;45.624;11.698;2024-01-27T08:13:35;45.22;;;31.08;;
66927;SDS011;59882;45.624;11.698;2024-01-27T08:16:00;45.73;;;30.63;;
66927;SDS011;59882;45.624;11.698;2024-01-27T08:18:26;49.80;;;32.23;;
66927;SDS011;59882;45.624;11.698;2024-01-27T08:20:52;43.30;;;28.85;;
66927;SDS011;59882;45.624;11.698;2024-01-27T08:23:17;45.07;;;30.20;;
66927;SDS011;59882;45.624;11.698;2024-01-27T08:25:43;48.10;;;29.45;;
66927;SDS011;59882;45.624;11.698;2024-01-27T08:28:12;48.33;;;31.43;;
66927;SDS011;59882;45.624;11.698;2024-01-27T08:30:37;49.42;;;30.52;;
66927;SDS011;59882;45.624;11.698;2024-01-27T08:33:03;53.10;;;33.63;;
66927;SDS011;59882;45.624;11.698;2024-01-27T08:35:30;60.20;;;37.22;;
66927;SDS011;59882;45.624;11.698;2024-01-27T08:37:55;67.40;;;37.93;;
66927;SDS011;59882;45.624;11.698;2024-01-27T08:40:21;61.75;;;37.33;;
66927;SDS011;59882;45.624;11.698;2024-01-27T08:42:47;62.83;;;34.07;;
66927;SDS011;59882;45.624;11.698;2024-01-27T08:45:12;54.08;;;32.35;;
66927;SDS011;59882;45.624;11.698;2024-01-27T08:47:38;57.10;;;33.70;;
66927;SDS011;59882;45.624;11.698;2024-01-27T08:50:04;56.92;;;33.53;;
66927;SDS011;59882;45.624;11.698;2024-01-27T08:52:30;54.10;;;32.42;;
66927;SDS011;59882;45.624;11.698;2024-01-27T08:54:56;49.17;;;32.13;;
66927;SDS011;59882;45.624;11.698;2024-01-27T08:57:22;52.88;;;33.67;;
66927;SDS011;59882;45.624;11.698;2024-01-27T08:59:47;45.00;;;30.27;;
66927;SDS011;59882;45.624;11.698;2024-01-27T09:02:13;52.17;;;33.22;;
66927;SDS011;59882;45.624;11.698;2024-01-27T09:04:38;48.27;;;31.57;;
66927;SDS011;59882;45.624;11.698;2024-01-27T09:07:04;48.93;;;30.57;;
66927;SDS011;59882;45.624;11.698;2024-01-27T09:09:30;47.90;;;28.73;;
66927;SDS011;59882;45.624;11.698;2024-01-27T09:11:55;43.17;;;28.67;;
66927;SDS011;59882;45.624;11.698;2024-01-27T09:14:21;50.07;;;29.93;;
66927;SDS011;59882;45.624;11.698;2024-01-27T09:16:47;47.20;;;30.77;;
66927;SDS011;59882;45.624;11.698;2024-01-27T09:19:13;61.17;;;32.40;;
66927;SDS011;59882;45.624;11.698;2024-01-27T09:21:38;45.55;;;30.70;;
66927;SDS011;59882;45.624;11.698;2024-01-27T09:24:04;58.80;;;33.03;;
66927;SDS011;59882;45.624;11.698;2024-01-27T09:26:30;54.17;;;31.25;;
66927;SDS011;59882;45.624;11.698;2024-01-27T09:28:56;50.87;;;33.10;;
66927;SDS011;59882;45.624;11.698;2024-01-27T09:31:22;65.20;;;35.88;;
66927;SDS011;59882;45.624;11.698;2024-01-27T09:33:51;63.55;;;35.80;;
66927;SDS011;59882;45.624;11.698;2024-01-27T09:36:18;97.13;;;39.80;;
66927;SDS011;59882;45.624;11.698;2024-01-27T09:38:44;87.88;;;40.92;;
66927;SDS011;59882;45.624;11.698;2024-01-27T09:41:11;73.82;;;38.78;;
66927;SDS011;59882;45.624;11.698;2024-01-27T09:43:40;66.70;;;39.83;;
66927;SDS011;59882;45.624;11.698;2024-01-27T09:46:08;68.63;;;39.28;;
66927;SDS011;59882;45.624;11.698;2024-01-27T09:48:34;102.53;;;40.87;;
66927;SDS011;59882;45.624;11.698;2024-01-27T09:51:01;101.00;;;42.15;;
66927;SDS011;59882;45.624;11.698;2024-01-27T09:53:28;111.20;;;39.20;;
66927;SDS011;59882;45.624;11.698;2024-01-27T09:55:54;75.53;;;39.60;;
66927;SDS011;59882;45.624;11.698;2024-01-27T09:58:23;92.75;;;40.65;;
66927;SDS011;59882;45.624;11.698;2024-01-27T10:00:55;128.95;;;42.08;;
66927;SDS011;59882;45.624;11.698;2024-01-27T10:03:22;100.63;;;41.78;;
66927;SDS011;59882;45.624;11.698;2024-01-27T10:05:50;68.63;;;39.23;;
66927;SDS011;59882;45.624;11.698;2024-01-27T10:08:17;129.73;;;46.20;;
66927;SDS011;59882;45.624;11.698;2024-01-27T10:10:42;93.25;;;45.05;;
66927;SDS011;59882;45.624;11.698;2024-01-27T10:13:08;82.97;;;43.97;;
66927;SDS011;59882;45.624;11.698;2024-01-27T10:15:38;83.63;;;43.30;;
66927;SDS011;59882;45.624;11.698;2024-01-27T10:18:07;78.80;;;45.03;;
66927;SDS011;59882;45.624;11.698;2024-01-27T10:20:33;89.82;;;47.58;;
66927;SDS011;59882;45.624;11.698;2024-01-27T10:22:59;109.57;;;49.88;;
66927;SDS011;59882;45.624;11.698;2024-01-27T10:25:37;96.85;;;49.38;;
66927;SDS011;59882;45.624;11.698;2024-01-27T10:28:04;88.93;;;49.97;;
66927;SDS011;59882;45.624;11.698;2024-01-27T10:30:31;96.53;;;50.33;;
66927;SDS011;59882;45.624;11.698;2024-01-27T10:32:57;94.63;;;52.83;;
66927;SDS011;59882;45.624;11.698;2024-01-27T10:35:23;79.17;;;45.87;;
66927;SDS011;59882;45.624;11.698;2024-01-27T10:37:51;83.50;;;48.40;;
66927;SDS011;59882;45.624;11.698;2024-01-27T10:40:18;87.53;;;45.97;;
66927;SDS011;59882;45.624;11.698;2024-01-27T10:42:44;73.95;;;46.20;;
66927;SDS011;59882;45.624;11.698;2024-01-27T10:45:11;78.57;;;46.03;;
66927;SDS011;59882;45.624;11.698;2024-01-27T10:47:38;84.20;;;47.85;;
66927;SDS011;59882;45.624;11.698;2024-01-27T10:50:07;80.03;;;49.47;;
66927;SDS011;59882;45.624;11.698;2024-01-27T10:52:38;141.27;;;65.13;;
66927;SDS011;59882;45.624;11.698;2024-01-27T10:55:06;140.15;;;81.45;;
66927;SDS011;59882;45.624;11.698;2024-01-27T10:57:34;156.48;;;90.80;;
66927;SDS011;59882;45.624;11.698;2024-01-27T11:00:02;183.13;;;90.70;;
66927;SDS011;59882;45.624;11.698;2024-01-27T11:02:34;170.35;;;92.35;;
66927;SDS011;59882;45.624;11.698;2024-01-27T11:05:02;145.80;;;83.33;;
66927;SDS011;59882;45.624;11.698;2024-01-27T11:07:30;140.25;;;82.88;;
66927;SDS011;59882;45.624;11.698;2024-01-27T11:09:57;127.22;;;74.15;;
66927;SDS011;59882;45.624;11.698;2024-01-27T11:12:23;108.20;;;67.00;;
66927;SDS011;59882;45.624;11.698;2024-01-27T11:14:51;113.35;;;69.88;;
66927;SDS011;59882;45.624;11.698;2024-01-27T11:17:17;110.85;;;67.47;;
66927;SDS011;59882;45.624;11.698;2024-01-27T11:19:44;107.95;;;66.25;;
66927;SDS011;59882;45.624;11.698;2024-01-27T11:22:23;109.72;;;68.13;;
66927;SDS011;59882;45.624;11.698;2024-01-27T11:24:53;113.13;;;69.67;;
66927;SDS011;59882;45.624;11.698;2024-01-27T11:27:33;102.47;;;66.35;;
66927;SDS011;59882;45.624;11.698;2024-01-27T11:30:00;106.47;;;66.97;;
66927;SDS011;59882;45.624;11.698;2024-01-27T11:32:26;111.05;;;68.80;;
66927;SDS011;59882;45.624;11.698;2024-01-27T11:34:52;104.90;;;65.97;;
66927;SDS011;59882;45.624;11.698;2024-01-27T11:37:17;96.45;;;61.65;;
66927;SDS011;59882;45.624;11.698;2024-01-27T11:39:49;98.38;;;61.47;;
66927;SDS011;59882;45.624;11.698;2024-01-27T11:42:15;103.03;;;63.33;;
66927;SDS011;59882;45.624;11.698;2024-01-27T11:44:41;98.43;;;61.47;;
66927;SDS011;59882;45.624;11.698;2024-01-27T11:49:59;96.85;;;61.35;;
66927;SDS011;59882;45.624;11.698;2024-01-27T11:52:25;87.57;;;57.20;;
66927;SDS011;59882;45.624;11.698;2024-01-27T11:54:59;92.43;;;60.20;;
66927;SDS011;59882;45.624;11.698;2024-01-27T11:57:26;88.35;;;57.03;;
66927;SDS011;59882;45.624;11.698;2024-01-27T11:59:52;82.55;;;53.50;;
66927;SDS011;59882;45.624;11.698;2024-01-27T12:02:19;81.53;;;52.40;;
66927;SDS011;59882;45.624;11.698;2024-01-27T12:04:45;97.32;;;59.88;;
66927;SDS011;59882;45.624;11.698;2024-01-27T12:07:11;89.70;;;58.35;;
66927;SDS011;59882;45.624;11.698;2024-01-27T12:09:37;92.27;;;58.57;;
66927;SDS011;59882;45.624;11.698;2024-01-27T12:12:03;90.88;;;57.92;;
66927;SDS011;59882;45.624;11.698;2024-01-27T12:14:39;96.22;;;57.67;;
66927;SDS011;59882;45.624;11.698;2024-01-27T12:17:12;83.20;;;54.03;;
66927;SDS011;59882;45.624;11.698;2024-01-27T12:19:38;83.20;;;56.00;;
66927;SDS011;59882;45.624;11.698;2024-01-27T12:22:04;95.78;;;60.58;;
66927;SDS011;59882;45.624;11.698;2024-01-27T12:24:45;89.15;;;59.10;;
66927;SDS011;59882;45.624;11.698;2024-01-27T12:27:11;87.77;;;58.93;;
66927;SDS011;59882;45.624;11.698;2024-01-27T12:29:37;84.40;;;56.45;;
66927;SDS011;59882;45.624;11.698;2024-01-27T12:32:02;87.23;;;57.43;;
66927;SDS011;59882;45.624;11.698;2024-01-27T12:34:28;86.15;;;58.47;;
66927;SDS011;59882;45.624;11.698;2024-01-27T12:36:54;95.63;;;61.67;;
66927;SDS011;59882;45.624;11.698;2024-01-27T12:39:21;93.80;;;60.55;;
66927;SDS011;59882;45.624;11.698;2024-01-27T12:41:46;85.55;;;59.90;;
66927;SDS011;59882;45.624;11.698;2024-01-27T12:44:12;91.57;;;61.53;;
66927;SDS011;59882;45.624;11.698;2024-01-27T12:46:37;95.80;;;64.40;;
66927;SDS011;59882;45.624;11.698;2024-01-27T12:49:03;96.80;;;64.05;;
66927;SDS011;59882;45.624;11.698;2024-01-27T12:51:30;96.78;;;64.38;;
66927;SDS011;59882;45.624;11.698;2024-01-27T12:53:55;97.40;;;65.23;;
66927;SDS011;59882;45.624;11.698;2024-01-27T12:56:21;100.13;;;65.07;;
66927;SDS011;59882;45.624;11.698;2024-01-27T12:58:47;101.53;;;67.80;;
66927;SDS011;59882;45.624;11.698;2024-01-27T13:01:13;101.47;;;67.05;;
66927;SDS011;59882;45.624;11.698;2024-01-27T13:03:39;101.00;;;65.57;;
66927;SDS011;59882;45.624;11.698;2024-01-27T13:06:05;104.78;;;69.38;;
66927;SDS011;59882;45.624;11.698;2024-01-27T13:08:30;99.43;;;64.47;;
66927;SDS011;59882;45.624;11.698;2024-01-27T13:10:56;96.85;;;65.57;;
66927;SDS011;59882;45.624;11.698;2024-01-27T13:13:22;104.30;;;69.33;;
66927;SDS011;59882;45.624;11.698;2024-01-27T13:15:47;104.60;;;68.47;;
66927;SDS011;59882;45.624;11.698;2024-01-27T13:18:13;106.70;;;70.90;;
66927;SDS011;59882;45.624;11.698;2024-01-27T13:20:38;111.37;;;69.97;;
66927;SDS011;59882;45.624;11.698;2024-01-27T13:23:07;107.57;;;71.45;;
66927;SDS011;59882;45.624;11.698;2024-01-27T13:25:33;111.35;;;73.28;;
66927;SDS011;59882;45.624;11.698;2024-01-27T13:27:58;112.83;;;72.53;;
66927;SDS011;59882;45.624;11.698;2024-01-27T13:30:24;107.57;;;71.70;;
66927;SDS011;59882;45.624;11.698;2024-01-27T13:32:50;120.27;;;76.30;;
66927;SDS011;59882;45.624;11.698;2024-01-27T13:35:16;107.15;;;71.88;;
66927;SDS011;59882;45.624;11.698;2024-01-27T13:37:41;100.90;;;68.20;;
66927;SDS011;59882;45.624;11.698;2024-01-27T13:40:07;106.45;;;70.03;;
66927;SDS011;59882;45.624;11.698;2024-01-27T13:42:36;100.22;;;67.15;;
66927;SDS011;59882;45.624;11.698;2024-01-27T13:45:02;103.97;;;69.50;;
66927;SDS011;59882;45.624;11.698;2024-01-27T13:47:28;99.95;;;69.32;;
66927;SDS011;59882;45.624;11.698;2024-01-27T13:49:54;107.63;;;72.53;;
66927;SDS011;59882;45.624;11.698;2024-01-27T13:52:20;104.43;;;69.50;;
66927;SDS011;59882;45.624;11.698;2024-01-27T13:54:46;105.47;;;71.97;;
66927;SDS011;59882;45.624;11.698;2024-01-27T13:57:11;106.60;;;70.72;;
66927;SDS011;59882;45.624;11.698;2024-01-27T13:59:37;101.67;;;66.27;;
66927;SDS011;59882;45.624;11.698;2024-01-27T14:02:03;104.47;;;72.60;;
66927;SDS011;59882;45.624;11.698;2024-01-27T14:04:28;99.10;;;68.63;;